createdAt,value
2022-12-29T00:01:03.106Z,70.10
2022-12-29T00:03:30.753Z,70.30
2022-12-29T00:05:59.375Z,70.30
2022-12-29T00:08:40.403Z,70.40
2022-12-29T00:11:14.016Z,70.50
2022-12-29T00:14:01.104Z,70.50
2022-12-29T00:16:29.612Z,70.70
2022-12-29T00:18:57.010Z,70.70
2022-12-29T00:21:44.361Z,70.90
2022-12-29T00:24:41.524Z,71.20
2022-12-29T00:27:29.842Z,71.30
2022-12-29T00:30:17.009Z,71.30
2022-12-29T00:33:04.081Z,71.40
2022-12-29T00:35:40.376Z,71.40
2022-12-29T00:38:28.786Z,71.40
2022-12-29T00:41:14.789Z,71.30
2022-12-29T00:44:00.698Z,71.30
2022-12-29T00:46:28.559Z,71.30
2022-12-29T00:49:16.017Z,71.30
2022-12-29T00:51:45.816Z,71.30
2022-12-29T00:54:13.908Z,71.20
2022-12-29T00:56:42.034Z,71.30
2022-12-29T00:59:11.273Z,71.10
2022-12-29T01:01:39.490Z,71.00
2022-12-29T01:04:08.115Z,70.90
2022-12-29T01:06:37.402Z,70.90
2022-12-29T01:09:24.594Z,70.80
2022-12-29T01:11:52.429Z,70.70
2022-12-29T01:14:20.706Z,70.60
2022-12-29T01:16:48.802Z,70.60
2022-12-29T01:19:19.309Z,70.80
2022-12-29T01:21:47.853Z,70.70
2022-12-29T01:24:16.604Z,70.80
2022-12-29T01:26:44.511Z,70.80
2022-12-29T01:29:11.932Z,70.80
2022-12-29T01:31:39.637Z,70.80
2022-12-29T01:34:08.024Z,70.80
2022-12-29T01:36:35.521Z,70.80
2022-12-29T01:39:03.098Z,70.80
2022-12-29T01:41:31.179Z,70.80
2022-12-29T01:44:01.842Z,70.70
2022-12-29T01:46:34.673Z,70.70
2022-12-29T01:49:19.435Z,70.60
2022-12-29T01:51:54.449Z,70.40
2022-12-29T01:54:43.957Z,70.40
2022-12-29T01:57:17.592Z,70.50
2022-12-29T01:59:54.182Z,70.50
2022-12-29T02:02:21.909Z,70.50
2022-12-29T02:04:49.435Z,70.30
2022-12-29T02:07:22.115Z,70.30
2022-12-29T02:09:52.574Z,70.40
2022-12-29T02:12:21.840Z,70.30
2022-12-29T02:14:54.477Z,70.40
2022-12-29T02:17:43.864Z,70.00
2022-12-29T02:20:36.347Z,70.20
2022-12-29T02:23:15.773Z,70.00
2022-12-29T02:26:08.535Z,70.00
2022-12-29T02:29:10.306Z,70.10
2022-12-29T02:32:06.795Z,69.80
2022-12-29T02:35:07.858Z,69.70
2022-12-29T02:37:56.998Z,69.70
2022-12-29T02:40:55.861Z,69.60
2022-12-29T02:43:42.917Z,69.60
2022-12-29T02:46:41.509Z,69.20
2022-12-29T02:49:28.894Z,69.10
2022-12-29T02:52:20.289Z,69.00
2022-12-29T02:54:50.339Z,68.90
2022-12-29T02:57:23.404Z,68.90
2022-12-29T02:59:56.404Z,68.80
2022-12-29T03:02:42.248Z,69.40
2022-12-29T03:05:53.874Z,68.70
2022-12-29T03:09:18.498Z,68.50
2022-12-29T03:12:21.083Z,68.50
2022-12-29T03:15:22.927Z,68.40
2022-12-29T03:18:05.271Z,68.40
2022-12-29T03:20:43.027Z,68.00
2022-12-29T03:26:01.028Z,68.30
2022-12-29T03:28:33.425Z,68.00
2022-12-29T03:31:04.093Z,68.20
2022-12-29T03:33:32.770Z,68.10
2022-12-29T03:36:05.612Z,67.90
2022-12-29T03:38:41.828Z,67.80
2022-12-29T03:41:20.703Z,67.90
2022-12-29T03:43:48.462Z,67.70
2022-12-29T03:46:16.112Z,67.50
2022-12-29T03:48:43.591Z,67.40
2022-12-29T03:51:11.177Z,67.30
2022-12-29T03:53:38.857Z,67.00
2022-12-29T03:56:06.640Z,66.80
2022-12-29T03:58:35.329Z,67.00
2022-12-29T04:01:12.104Z,66.80
2022-12-29T04:03:40.236Z,66.50
2022-12-29T04:06:09.039Z,66.30
2022-12-29T04:08:44.688Z,66.10
2022-12-29T04:11:12.485Z,66.10
2022-12-29T04:13:42.079Z,65.90
2022-12-29T04:16:11.490Z,66.00
2022-12-29T04:18:38.952Z,65.90
2022-12-29T04:21:07.615Z,66.00
2022-12-29T04:23:40.126Z,65.80
2022-12-29T04:26:10.237Z,65.80
2022-12-29T04:29:03.348Z,65.60
2022-12-29T04:31:45.336Z,65.30
2022-12-29T04:34:13.035Z,65.10
2022-12-29T04:36:40.684Z,65.10
2022-12-29T04:39:08.731Z,65.10
2022-12-29T04:41:37.122Z,65.10
2022-12-29T04:44:06.728Z,65.00
2022-12-29T04:46:53.274Z,64.60
2022-12-29T04:49:40.923Z,65.00
2022-12-29T04:52:23.906Z,65.20
2022-12-29T04:54:52.451Z,65.10
2022-12-29T04:57:21.811Z,65.00
2022-12-29T04:59:53.436Z,66.00
2022-12-29T05:02:20.964Z,65.10
2022-12-29T05:04:50.564Z,65.10
2022-12-29T05:07:18.473Z,65.20
2022-12-29T05:09:46.284Z,65.20
2022-12-29T05:12:13.635Z,65.30
2022-12-29T05:14:49.625Z,65.30
2022-12-29T05:17:17.010Z,65.30
2022-12-29T05:19:44.770Z,65.10
2022-12-29T05:22:12.729Z,65.00
2022-12-29T05:24:40.295Z,65.20
2022-12-29T05:27:09.780Z,65.40
2022-12-29T05:29:56.153Z,65.60
2022-12-29T05:32:23.669Z,65.70
2022-12-29T05:34:50.988Z,65.80
2022-12-29T05:37:19.315Z,65.80
2022-12-29T05:39:47.223Z,65.80
2022-12-29T05:42:15.197Z,65.90
2022-12-29T05:45:09.409Z,65.90
2022-12-29T05:48:15.349Z,66.50
2022-12-29T05:51:05.046Z,65.80
2022-12-29T05:53:47.471Z,65.90
2022-12-29T05:56:14.989Z,65.80
2022-12-29T05:58:42.725Z,65.80
2022-12-29T06:01:10.171Z,65.80
2022-12-29T06:03:42.970Z,65.70
2022-12-29T06:06:13.696Z,65.60
2022-12-29T06:08:41.441Z,65.50
2022-12-29T06:11:10.669Z,65.50
2022-12-29T06:13:39.540Z,65.40
2022-12-29T06:16:07.600Z,65.50
2022-12-29T06:18:35.771Z,65.50
2022-12-29T06:21:05.792Z,65.50
2022-12-29T06:23:33.255Z,65.70
2022-12-29T06:26:00.692Z,65.80
2022-12-29T06:28:28.096Z,65.80
2022-12-29T06:30:55.492Z,65.90
2022-12-29T06:33:23.124Z,66.00
2022-12-29T06:35:51.277Z,66.20
2022-12-29T06:38:18.610Z,66.50
2022-12-29T06:40:46.488Z,66.70
2022-12-29T06:43:42.384Z,66.90
2022-12-29T06:46:20.031Z,67.10
2022-12-29T06:48:47.550Z,67.20
2022-12-29T06:51:14.935Z,67.40
2022-12-29T06:53:42.324Z,68.10
2022-12-29T06:56:09.814Z,67.20
2022-12-29T06:58:37.138Z,67.20
2022-12-29T07:01:04.819Z,67.30
2022-12-29T07:03:32.543Z,67.00
2022-12-29T07:05:59.975Z,67.00
2022-12-29T07:08:27.324Z,66.90
2022-12-29T07:10:54.763Z,66.90
2022-12-29T07:13:22.214Z,66.70
2022-12-29T07:15:49.548Z,66.70
2022-12-29T07:18:16.969Z,66.70
2022-12-29T07:20:44.974Z,66.60
2022-12-29T07:23:12.471Z,66.50
2022-12-29T07:25:41.753Z,66.40
2022-12-29T07:28:09.012Z,66.40
2022-12-29T07:30:39.382Z,66.30
2022-12-29T07:33:06.734Z,66.10
2022-12-29T07:35:37.191Z,66.00
2022-12-29T07:38:04.536Z,65.90
2022-12-29T07:40:32.010Z,65.90
2022-12-29T07:43:00.539Z,65.80
2022-12-29T07:45:34.908Z,66.00
2022-12-29T07:48:10.355Z,66.00
2022-12-29T07:50:38.133Z,65.80
2022-12-29T07:53:05.626Z,65.70
2022-12-29T07:55:33.437Z,65.80
2022-12-29T07:58:01.003Z,65.70
2022-12-29T08:00:28.405Z,65.90
2022-12-29T08:02:58.142Z,65.90
2022-12-29T08:05:25.637Z,66.10
2022-12-29T08:07:53.249Z,66.20
2022-12-29T08:10:20.625Z,66.30
2022-12-29T08:12:48.003Z,66.40
2022-12-29T08:15:15.664Z,66.30
2022-12-29T08:17:43.105Z,66.40
2022-12-29T08:20:11.694Z,66.40
2022-12-29T08:22:39.197Z,66.60
2022-12-29T08:25:07.063Z,66.80
2022-12-29T08:27:34.409Z,67.20
2022-12-29T08:30:01.996Z,67.50
2022-12-29T08:32:29.417Z,67.30
2022-12-29T08:34:56.898Z,67.50
2022-12-29T08:37:29.261Z,67.60
2022-12-29T08:39:59.696Z,67.50
2022-12-29T08:42:31.899Z,67.40
2022-12-29T08:45:00.423Z,66.90
2022-12-29T08:47:28.199Z,66.60
2022-12-29T08:49:55.642Z,66.40
2022-12-29T08:52:23.854Z,66.20
2022-12-29T08:54:51.642Z,65.80
2022-12-29T08:57:19.159Z,65.40
2022-12-29T09:00:11.405Z,65.20
2022-12-29T09:02:39.016Z,64.90
2022-12-29T09:05:07.118Z,64.50
2022-12-29T09:07:34.548Z,64.50
2022-12-29T09:10:02.487Z,64.10
2022-12-29T09:12:35.916Z,64.20
2022-12-29T09:15:04.756Z,63.80
2022-12-29T09:17:47.444Z,63.70
2022-12-29T09:20:17.639Z,63.20
2022-12-29T09:22:45.566Z,63.00
2022-12-29T09:25:13.093Z,62.90
2022-12-29T09:27:41.170Z,62.70
2022-12-29T09:30:12.433Z,63.00
2022-12-29T09:32:44.792Z,63.00
2022-12-29T09:35:13.723Z,62.40
2022-12-29T09:37:41.234Z,62.10
2022-12-29T09:40:18.469Z,62.10
2022-12-29T09:43:13.061Z,61.90
2022-12-29T09:45:48.342Z,61.40
2022-12-29T09:48:20.929Z,61.80
2022-12-29T09:50:53.780Z,61.90
2022-12-29T09:53:39.380Z,61.50
2022-12-29T09:56:15.968Z,61.30
2022-12-29T09:58:52.532Z,61.20
2022-12-29T10:01:31.194Z,61.00
2022-12-29T10:04:00.573Z,60.70
2022-12-29T10:09:54.487Z,60.40
2022-12-29T10:13:04.295Z,60.70
2022-12-29T10:16:00.827Z,60.70
2022-12-29T10:18:52.402Z,60.60
2022-12-29T10:21:38.434Z,60.10
2022-12-29T10:24:10.917Z,59.60
2022-12-29T10:26:42.700Z,59.70
2022-12-29T10:29:33.385Z,59.70
2022-12-29T10:32:13.587Z,59.30
2022-12-29T10:34:48.304Z,59.40
2022-12-29T10:37:18.664Z,59.10
2022-12-29T10:39:56.636Z,59.20
2022-12-29T10:42:26.828Z,58.90
2022-12-29T10:44:58.255Z,58.90
2022-12-29T10:47:30.535Z,59.60
2022-12-29T10:49:59.393Z,58.90
2022-12-29T10:52:29.607Z,58.40
2022-12-29T10:55:16.454Z,58.60
2022-12-29T10:57:48.081Z,58.10
2022-12-29T11:00:18.612Z,58.20
2022-12-29T11:03:10.804Z,58.30
2022-12-29T11:06:15.821Z,58.20
2022-12-29T11:08:57.188Z,57.60
2022-12-29T11:11:28.339Z,57.00
2022-12-29T11:14:09.947Z,57.40
2022-12-29T11:16:37.451Z,57.10
2022-12-29T11:19:04.958Z,57.10
2022-12-29T11:21:41.491Z,57.10
2022-12-29T11:24:30.643Z,56.70
2022-12-29T11:27:21.533Z,56.90
2022-12-29T11:29:50.591Z,56.90
2022-12-29T11:32:29.235Z,56.80
2022-12-29T11:35:02.648Z,56.80
2022-12-29T11:37:41.056Z,57.00
2022-12-29T11:40:20.422Z,57.00
2022-12-29T11:43:03.532Z,56.80
2022-12-29T11:45:34.957Z,57.10
2022-12-29T11:48:14.560Z,57.20
2022-12-29T11:50:49.540Z,57.00
2022-12-29T11:53:22.808Z,57.20
2022-12-29T11:55:56.921Z,57.40
2022-12-29T11:58:33.591Z,57.80
2022-12-29T12:01:26.372Z,58.50
2022-12-29T12:04:07.828Z,58.00
2022-12-29T12:06:43.469Z,58.00
2022-12-29T12:09:19.937Z,58.00
2022-12-29T12:11:48.098Z,58.30
2022-12-29T12:14:21.675Z,58.80
2022-12-29T12:17:39.289Z,58.80
2022-12-29T12:20:23.031Z,59.10
2022-12-29T12:23:03.152Z,59.20
2022-12-29T12:25:38.597Z,59.20
2022-12-29T12:28:14.486Z,59.00
2022-12-29T12:30:47.093Z,59.30
2022-12-29T12:33:28.835Z,59.10
2022-12-29T12:36:27.780Z,59.20
2022-12-29T12:39:13.419Z,59.30
2022-12-29T12:42:14.685Z,59.40
2022-12-29T12:45:15.328Z,59.40
2022-12-29T12:47:58.721Z,59.40
2022-12-29T12:50:37.951Z,59.60
2022-12-29T12:53:35.329Z,59.70
2022-12-29T12:56:28.557Z,59.70
2022-12-29T12:59:33.699Z,59.70
2022-12-29T13:02:29.164Z,59.90
2022-12-29T13:05:22.670Z,59.70
2022-12-29T13:07:59.333Z,59.70
2022-12-29T13:10:41.836Z,60.00
2022-12-29T13:13:35.560Z,60.00
2022-12-29T13:16:18.229Z,60.00
2022-12-29T13:19:26.205Z,60.20
2022-12-29T13:22:20.371Z,60.00
2022-12-29T13:25:16.678Z,60.00
2022-12-29T13:28:16.042Z,60.00
2022-12-29T13:30:50.306Z,60.00
2022-12-29T13:33:33.361Z,60.10
2022-12-29T13:36:17.369Z,59.90
2022-12-29T13:38:49.353Z,60.00
2022-12-29T13:41:31.791Z,60.90
2022-12-29T13:44:02.758Z,60.20
2022-12-29T13:46:37.866Z,60.20
2022-12-29T13:49:12.846Z,60.20
2022-12-29T13:51:49.055Z,60.20
2022-12-29T13:54:26.077Z,60.40
2022-12-29T13:57:20.305Z,60.30
2022-12-29T13:59:58.769Z,60.50
2022-12-29T14:03:07.533Z,60.40
2022-12-29T14:05:35.267Z,60.50
2022-12-29T14:08:06.458Z,60.50
2022-12-29T14:10:51.082Z,60.80
2022-12-29T14:13:24.368Z,60.90
2022-12-29T14:15:58.976Z,61.00
2022-12-29T14:18:32.906Z,61.20
2022-12-29T14:21:08.657Z,61.40
2022-12-29T14:23:44.506Z,61.50
2022-12-29T14:26:32.678Z,61.60
2022-12-29T14:29:33.343Z,61.70
2022-12-29T14:32:00.930Z,61.80
2022-12-29T14:34:30.990Z,61.90
2022-12-29T14:37:03.057Z,62.00
2022-12-29T14:39:42.901Z,62.00
2022-12-29T14:42:10.183Z,62.00
2022-12-29T14:45:27.399Z,62.20
2022-12-29T14:47:55.339Z,62.20
2022-12-29T14:50:34.638Z,62.10
2022-12-29T14:53:06.046Z,62.20
2022-12-29T14:55:47.613Z,62.40
2022-12-29T14:58:28.747Z,62.50
2022-12-29T15:00:57.000Z,62.40
2022-12-29T15:03:29.951Z,62.60
2022-12-29T15:06:12.145Z,62.70
2022-12-29T15:09:15.440Z,62.90
2022-12-29T15:11:51.684Z,63.10
2022-12-29T15:14:48.850Z,63.20
2022-12-29T15:17:43.420Z,63.00
2022-12-29T15:20:25.870Z,63.00
2022-12-29T15:22:59.545Z,63.00
2022-12-29T15:25:27.689Z,63.10
2022-12-29T15:28:00.301Z,63.00
2022-12-29T15:30:27.867Z,63.00
2022-12-29T15:32:55.389Z,63.00
2022-12-29T15:35:37.579Z,63.40
2022-12-29T15:38:17.568Z,63.40
2022-12-29T15:40:46.339Z,63.40
2022-12-29T15:43:20.462Z,63.50
2022-12-29T15:45:48.190Z,63.60
2022-12-29T15:48:20.303Z,63.70
2022-12-29T15:50:48.165Z,63.90
2022-12-29T15:53:29.181Z,64.00
2022-12-29T15:56:06.756Z,64.10
2022-12-29T15:58:45.352Z,64.30
2022-12-29T16:01:37.057Z,64.30
2022-12-29T16:04:08.487Z,64.50
2022-12-29T16:06:44.876Z,64.60
2022-12-29T16:09:18.447Z,64.80
2022-12-29T16:11:51.755Z,65.00
2022-12-29T16:14:45.470Z,65.20
2022-12-29T16:17:27.819Z,65.30
2022-12-29T16:20:01.433Z,65.50
2022-12-29T16:22:39.685Z,65.60
2022-12-29T16:25:30.187Z,65.60
2022-12-29T16:27:58.103Z,65.80
2022-12-29T16:30:33.168Z,65.80
2022-12-29T16:33:03.928Z,65.80
2022-12-29T16:35:45.218Z,65.80
2022-12-29T16:38:17.991Z,65.90
2022-12-29T16:41:00.001Z,66.10
2022-12-29T16:43:33.987Z,65.90
2022-12-29T16:46:01.410Z,66.00
2022-12-29T16:48:30.819Z,66.10
2022-12-29T16:51:05.533Z,66.20
2022-12-29T16:53:37.233Z,66.30
2022-12-29T16:56:15.302Z,66.20
2022-12-29T16:58:49.148Z,66.50
2022-12-29T17:01:19.720Z,66.60
2022-12-29T17:03:59.296Z,66.80
2022-12-29T17:06:26.979Z,66.90
2022-12-29T17:08:54.332Z,66.80
2022-12-29T17:11:55.580Z,66.90
2022-12-29T17:14:52.676Z,67.10
2022-12-29T17:17:22.315Z,67.10
2022-12-29T17:19:55.129Z,67.00
2022-12-29T17:22:26.110Z,67.30
2022-12-29T17:24:58.972Z,67.50
2022-12-29T17:27:34.294Z,67.90
2022-12-29T17:30:06.352Z,68.50
2022-12-29T17:32:34.052Z,70.00
2022-12-29T17:35:01.369Z,70.50
2022-12-29T17:37:37.626Z,70.40
2022-12-29T17:40:08.362Z,70.70
2022-12-29T17:42:40.511Z,70.60
2022-12-29T17:45:17.676Z,70.90
2022-12-29T17:47:45.297Z,70.90
2022-12-29T17:50:14.882Z,70.80
2022-12-29T17:52:44.073Z,71.20
2022-12-29T17:55:19.398Z,71.30
2022-12-29T17:57:47.217Z,71.60
2022-12-29T18:00:21.356Z,71.90
2022-12-29T18:02:49.511Z,72.20
2022-12-29T18:05:21.712Z,72.20
2022-12-29T18:07:52.413Z,72.50
2022-12-29T18:10:21.229Z,72.50
2022-12-29T18:12:50.324Z,72.80
2022-12-29T18:15:23.985Z,72.60
2022-12-29T18:18:14.161Z,72.60
2022-12-29T18:20:43.204Z,72.90
2022-12-29T18:23:23.506Z,72.70
2022-12-29T18:25:55.567Z,72.70
2022-12-29T18:28:24.888Z,72.80
2022-12-29T18:30:53.253Z,72.70
2022-12-29T18:33:24.984Z,72.70
2022-12-29T18:35:56.877Z,72.80
2022-12-29T18:38:24.523Z,72.80
2022-12-29T18:40:52.148Z,72.80
2022-12-29T18:43:20.508Z,72.80
2022-12-29T18:45:47.960Z,73.10
2022-12-29T18:48:17.092Z,73.20
2022-12-29T18:50:45.501Z,73.30
2022-12-29T18:53:17.890Z,73.50
2022-12-29T18:55:45.445Z,73.60
2022-12-29T18:58:13.186Z,73.40
2022-12-29T19:00:40.928Z,73.50
2022-12-29T19:03:15.380Z,73.40
2022-12-29T19:05:44.103Z,73.40
2022-12-29T19:08:12.847Z,73.60
2022-12-29T19:10:41.891Z,74.00
2022-12-29T19:13:16.432Z,74.10
2022-12-29T19:15:46.551Z,74.20
2022-12-29T19:21:08.054Z,74.40
2022-12-29T19:23:35.567Z,74.30
2022-12-29T19:26:03.501Z,74.40
2022-12-29T19:28:30.888Z,74.40
2022-12-29T19:31:00.340Z,74.40
2022-12-29T19:33:28.419Z,74.30
2022-12-29T19:36:02.846Z,74.20
2022-12-29T19:38:30.323Z,74.40
2022-12-29T19:40:57.887Z,74.30
2022-12-29T19:43:25.491Z,74.00
2022-12-29T19:45:53.866Z,74.00
2022-12-29T19:48:21.687Z,74.00
2022-12-29T19:50:49.318Z,74.20
2022-12-29T19:53:16.720Z,74.30
2022-12-29T19:55:45.537Z,74.50
2022-12-29T19:58:14.122Z,74.60
2022-12-29T20:00:43.051Z,74.70
2022-12-29T20:03:11.229Z,74.80
2022-12-29T20:05:39.610Z,74.90
2022-12-29T20:08:07.296Z,74.90
2022-12-29T20:10:34.747Z,74.90
2022-12-29T20:13:04.462Z,75.10
2022-12-29T20:15:32.327Z,75.00
2022-12-29T20:18:13.273Z,75.10
2022-12-29T20:20:42.051Z,75.10
2022-12-29T20:23:09.494Z,75.20
2022-12-29T20:25:46.022Z,75.20
2022-12-29T20:28:15.608Z,75.10
2022-12-29T20:30:43.956Z,75.10
2022-12-29T20:33:11.532Z,74.80
2022-12-29T20:35:39.302Z,74.60
2022-12-29T20:38:06.692Z,74.40
2022-12-29T20:40:40.666Z,74.40
2022-12-29T20:43:12.154Z,74.50
2022-12-29T20:45:40.453Z,74.40
2022-12-29T20:48:07.963Z,74.40
2022-12-29T20:50:35.631Z,74.70
2022-12-29T20:53:03.497Z,74.80
2022-12-29T20:55:30.895Z,75.10
2022-12-29T20:58:23.270Z,75.00
2022-12-29T21:00:45.966Z,75.00
2022-12-29T21:03:13.402Z,75.00
2022-12-29T21:05:40.998Z,74.80
2022-12-29T21:08:08.472Z,74.70
2022-12-29T21:10:35.872Z,74.70
2022-12-29T21:13:03.633Z,74.70
2022-12-29T21:15:32.816Z,74.60
2022-12-29T21:18:00.216Z,74.60
2022-12-29T21:20:31.818Z,74.60
2022-12-29T21:23:01.288Z,74.70
2022-12-29T21:25:36.892Z,75.00
2022-12-29T21:28:09.484Z,75.10
2022-12-29T21:30:36.986Z,75.30
2022-12-29T21:33:05.155Z,75.60
2022-12-29T21:35:36.233Z,75.80
2022-12-29T21:38:03.445Z,76.10
2022-12-29T21:40:32.280Z,76.20
2022-12-29T21:42:59.609Z,76.10
2022-12-29T21:45:27.578Z,76.10
2022-12-29T21:48:16.167Z,76.00
2022-12-29T21:51:26.778Z,76.00
2022-12-29T21:54:19.612Z,75.90
2022-12-29T21:56:48.399Z,75.90
2022-12-29T21:59:35.405Z,75.90
2022-12-29T22:02:23.396Z,76.10
2022-12-29T22:05:09.639Z,75.90
2022-12-29T22:07:55.584Z,75.70
2022-12-29T22:10:41.535Z,75.90
2022-12-29T22:13:08.881Z,75.80
2022-12-29T22:15:37.329Z,75.90
2022-12-29T22:18:05.233Z,75.80
2022-12-29T22:20:35.656Z,75.70
2022-12-29T22:23:03.576Z,75.70
2022-12-29T22:25:31.222Z,75.60
2022-12-29T22:27:59.868Z,75.70
2022-12-29T22:30:28.619Z,75.60
2022-12-29T22:32:58.160Z,75.70
2022-12-29T22:35:25.740Z,75.70
2022-12-29T22:37:53.538Z,75.50
2022-12-29T22:40:21.142Z,75.50
2022-12-29T22:42:48.761Z,75.40
2022-12-29T22:45:16.242Z,75.30
2022-12-29T22:47:43.627Z,75.30
2022-12-29T22:50:11.215Z,75.10
2022-12-29T22:52:38.743Z,75.10
2022-12-29T22:55:08.041Z,75.10
2022-12-29T22:57:36.324Z,75.10
2022-12-29T23:00:08.395Z,75.10
2022-12-29T23:02:36.440Z,75.20
2022-12-29T23:05:05.728Z,75.20
2022-12-29T23:07:35.083Z,75.10
2022-12-29T23:10:04.326Z,75.20
2022-12-29T23:12:32.079Z,75.20
2022-12-29T23:14:59.814Z,75.80
2022-12-29T23:17:27.339Z,75.10
2022-12-29T23:19:54.711Z,75.00
2022-12-29T23:22:23.081Z,75.00
2022-12-29T23:24:50.843Z,75.00
2022-12-29T23:27:18.291Z,75.10
2022-12-29T23:29:45.693Z,75.00
2022-12-29T23:32:13.146Z,75.20
2022-12-29T23:34:40.507Z,75.10
2022-12-29T23:37:07.848Z,75.10
2022-12-29T23:39:35.103Z,75.10
2022-12-29T23:42:02.485Z,75.20
2022-12-29T23:44:30.123Z,75.20
2022-12-29T23:46:57.640Z,75.30
2022-12-29T23:49:24.934Z,75.40
2022-12-29T23:51:52.298Z,75.40
2022-12-29T23:54:19.698Z,75.50
2022-12-29T23:56:47.173Z,75.70
2022-12-29T23:59:14.406Z,75.70
